sensor_id;sensor_type;location;lat;lon;timestamp;P1;durP1;ratioP1;P2;durP2;ratioP2
37201;SDS011;37799;52.390;6.136;2023-06-26T00:01:59;7.43;;;2.10;;
37201;SDS011;37799;52.390;6.136;2023-06-26T00:04:25;6.00;;;2.10;;
37201;SDS011;37799;52.390;6.136;2023-06-26T00:06:50;5.60;;;1.95;;
37201;SDS011;37799;52.390;6.136;2023-06-26T00:09:15;6.25;;;2.10;;
37201;SDS011;37799;52.390;6.136;2023-06-26T00:11:41;6.60;;;1.90;;
37201;SDS011;37799;52.390;6.136;2023-06-26T00:14:06;6.28;;;2.13;;
37201;SDS011;37799;52.390;6.136;2023-06-26T00:16:31;5.90;;;2.13;;
37201;SDS011;37799;52.390;6.136;2023-06-26T00:18:57;6.22;;;2.28;;
37201;SDS011;37799;52.390;6.136;2023-06-26T00:21:24;6.10;;;1.92;;
37201;SDS011;37799;52.390;6.136;2023-06-26T00:23:50;5.35;;;2.10;;
37201;SDS011;37799;52.390;6.136;2023-06-26T00:26:15;6.57;;;2.10;;
37201;SDS011;37799;52.390;6.136;2023-06-26T00:28:41;7.15;;;2.78;;
37201;SDS011;37799;52.390;6.136;2023-06-26T00:31:06;6.32;;;2.55;;
37201;SDS011;37799;52.390;6.136;2023-06-26T00:33:31;6.25;;;2.20;;
37201;SDS011;37799;52.390;6.136;2023-06-26T00:35:57;6.22;;;1.92;;
37201;SDS011;37799;52.390;6.136;2023-06-26T00:38:22;6.25;;;2.15;;
37201;SDS011;37799;52.390;6.136;2023-06-26T00:40:47;6.72;;;2.17;;
37201;SDS011;37799;52.390;6.136;2023-06-26T00:43:13;6.00;;;2.22;;
37201;SDS011;37799;52.390;6.136;2023-06-26T00:45:38;6.85;;;2.33;;
37201;SDS011;37799;52.390;6.136;2023-06-26T00:48:03;7.53;;;2.80;;
37201;SDS011;37799;52.390;6.136;2023-06-26T00:50:30;6.15;;;2.05;;
37201;SDS011;37799;52.390;6.136;2023-06-26T00:52:56;5.15;;;2.00;;
37201;SDS011;37799;52.390;6.136;2023-06-26T00:55:25;6.53;;;2.13;;
37201;SDS011;37799;52.390;6.136;2023-06-26T00:57:54;6.90;;;2.47;;
37201;SDS011;37799;52.390;6.136;2023-06-26T01:00:20;7.07;;;2.42;;
37201;SDS011;37799;52.390;6.136;2023-06-26T01:02:46;6.18;;;2.03;;
37201;SDS011;37799;52.390;6.136;2023-06-26T01:05:11;7.97;;;2.53;;
37201;SDS011;37799;52.390;6.136;2023-06-26T01:07:37;6.13;;;2.03;;
37201;SDS011;37799;52.390;6.136;2023-06-26T01:10:05;6.35;;;2.40;;
37201;SDS011;37799;52.390;6.136;2023-06-26T01:12:32;6.30;;;2.38;;
37201;SDS011;37799;52.390;6.136;2023-06-26T01:14:58;6.07;;;2.05;;
37201;SDS011;37799;52.390;6.136;2023-06-26T01:17:25;6.90;;;2.65;;
37201;SDS011;37799;52.390;6.136;2023-06-26T01:19:56;6.93;;;2.58;;
37201;SDS011;37799;52.390;6.136;2023-06-26T01:22:34;7.65;;;2.70;;
37201;SDS011;37799;52.390;6.136;2023-06-26T01:28:03;7.15;;;2.50;;
37201;SDS011;37799;52.390;6.136;2023-06-26T01:30:30;9.93;;;3.53;;
37201;SDS011;37799;52.390;6.136;2023-06-26T01:32:57;6.97;;;2.63;;
37201;SDS011;37799;52.390;6.136;2023-06-26T01:35:23;6.75;;;2.63;;
37201;SDS011;37799;52.390;6.136;2023-06-26T01:37:48;8.27;;;3.08;;
37201;SDS011;37799;52.390;6.136;2023-06-26T01:40:14;9.02;;;3.55;;
37201;SDS011;37799;52.390;6.136;2023-06-26T01:42:39;7.55;;;2.63;;
37201;SDS011;37799;52.390;6.136;2023-06-26T01:45:07;8.10;;;2.80;;
37201;SDS011;37799;52.390;6.136;2023-06-26T01:47:37;7.13;;;2.88;;
37201;SDS011;37799;52.390;6.136;2023-06-26T01:50:11;7.18;;;2.72;;
37201;SDS011;37799;52.390;6.136;2023-06-26T01:52:42;8.98;;;3.33;;
37201;SDS011;37799;52.390;6.136;2023-06-26T01:58:06;7.65;;;3.15;;
37201;SDS011;37799;52.390;6.136;2023-06-26T02:00:33;7.13;;;2.65;;
37201;SDS011;37799;52.390;6.136;2023-06-26T02:02:59;6.65;;;2.70;;
37201;SDS011;37799;52.390;6.136;2023-06-26T02:05:24;7.82;;;3.35;;
37201;SDS011;37799;52.390;6.136;2023-06-26T02:07:50;8.80;;;3.42;;
37201;SDS011;37799;52.390;6.136;2023-06-26T02:10:16;8.00;;;2.65;;
37201;SDS011;37799;52.390;6.136;2023-06-26T02:12:42;8.32;;;2.65;;
37201;SDS011;37799;52.390;6.136;2023-06-26T02:15:07;7.82;;;2.92;;
37201;SDS011;37799;52.390;6.136;2023-06-26T02:17:33;7.25;;;2.33;;
37201;SDS011;37799;52.390;6.136;2023-06-26T02:19:59;7.25;;;2.53;;
37201;SDS011;37799;52.390;6.136;2023-06-26T02:22:24;7.57;;;3.08;;
37201;SDS011;37799;52.390;6.136;2023-06-26T02:24:50;6.38;;;2.60;;
37201;SDS011;37799;52.390;6.136;2023-06-26T02:27:15;7.80;;;2.95;;
37201;SDS011;37799;52.390;6.136;2023-06-26T02:29:41;9.88;;;3.55;;
37201;SDS011;37799;52.390;6.136;2023-06-26T02:32:06;7.22;;;3.13;;
37201;SDS011;37799;52.390;6.136;2023-06-26T02:34:32;8.10;;;3.25;;
37201;SDS011;37799;52.390;6.136;2023-06-26T02:36:58;7.00;;;2.78;;
37201;SDS011;37799;52.390;6.136;2023-06-26T02:39:25;8.73;;;3.22;;
37201;SDS011;37799;52.390;6.136;2023-06-26T02:41:51;9.35;;;3.08;;
37201;SDS011;37799;52.390;6.136;2023-06-26T02:44:16;7.80;;;3.30;;
37201;SDS011;37799;52.390;6.136;2023-06-26T02:46:41;8.13;;;3.22;;
37201;SDS011;37799;52.390;6.136;2023-06-26T02:49:07;7.85;;;3.15;;
37201;SDS011;37799;52.390;6.136;2023-06-26T02:51:33;8.57;;;3.40;;
37201;SDS011;37799;52.390;6.136;2023-06-26T02:53:58;8.27;;;3.60;;
37201;SDS011;37799;52.390;6.136;2023-06-26T02:56:24;7.88;;;3.35;;
37201;SDS011;37799;52.390;6.136;2023-06-26T02:58:53;8.32;;;3.50;;
37201;SDS011;37799;52.390;6.136;2023-06-26T03:01:19;8.55;;;3.40;;
37201;SDS011;37799;52.390;6.136;2023-06-26T03:03:45;8.13;;;2.90;;
37201;SDS011;37799;52.390;6.136;2023-06-26T03:06:12;7.20;;;3.08;;
37201;SDS011;37799;52.390;6.136;2023-06-26T03:08:37;7.47;;;2.72;;
37201;SDS011;37799;52.390;6.136;2023-06-26T03:11:04;8.38;;;2.83;;
37201;SDS011;37799;52.390;6.136;2023-06-26T03:13:30;8.98;;;3.00;;
37201;SDS011;37799;52.390;6.136;2023-06-26T03:15:55;7.25;;;2.92;;
37201;SDS011;37799;52.390;6.136;2023-06-26T03:18:21;6.93;;;2.72;;
37201;SDS011;37799;52.390;6.136;2023-06-26T03:20:46;6.95;;;2.33;;
37201;SDS011;37799;52.390;6.136;2023-06-26T03:23:13;7.80;;;2.03;;
37201;SDS011;37799;52.390;6.136;2023-06-26T03:25:38;6.70;;;2.42;;
37201;SDS011;37799;52.390;6.136;2023-06-26T03:28:03;6.57;;;2.22;;
37201;SDS011;37799;52.390;6.136;2023-06-26T03:30:29;7.45;;;2.75;;
37201;SDS011;37799;52.390;6.136;2023-06-26T03:32:54;6.03;;;2.03;;
37201;SDS011;37799;52.390;6.136;2023-06-26T03:35:19;6.88;;;2.53;;
37201;SDS011;37799;52.390;6.136;2023-06-26T03:37:45;5.35;;;1.85;;
37201;SDS011;37799;52.390;6.136;2023-06-26T03:40:10;6.03;;;2.05;;
37201;SDS011;37799;52.390;6.136;2023-06-26T03:42:36;6.15;;;2.05;;
37201;SDS011;37799;52.390;6.136;2023-06-26T03:45:01;5.10;;;1.70;;
37201;SDS011;37799;52.390;6.136;2023-06-26T03:47:26;5.00;;;1.60;;
37201;SDS011;37799;52.390;6.136;2023-06-26T03:49:52;5.32;;;1.52;;
37201;SDS011;37799;52.390;6.136;2023-06-26T03:52:17;4.88;;;1.67;;
37201;SDS011;37799;52.390;6.136;2023-06-26T03:54:42;5.07;;;1.70;;
37201;SDS011;37799;52.390;6.136;2023-06-26T03:57:08;6.80;;;1.90;;
37201;SDS011;37799;52.390;6.136;2023-06-26T03:59:33;5.30;;;1.50;;
37201;SDS011;37799;52.390;6.136;2023-06-26T04:01:59;6.20;;;1.23;;
37201;SDS011;37799;52.390;6.136;2023-06-26T04:04:24;4.95;;;1.13;;
37201;SDS011;37799;52.390;6.136;2023-06-26T04:06:49;5.00;;;1.50;;
37201;SDS011;37799;52.390;6.136;2023-06-26T04:09:15;4.55;;;1.20;;
37201;SDS011;37799;52.390;6.136;2023-06-26T04:11:42;4.05;;;0.90;;
37201;SDS011;37799;52.390;6.136;2023-06-26T04:14:07;3.92;;;1.27;;
37201;SDS011;37799;52.390;6.136;2023-06-26T04:16:32;3.10;;;0.73;;
37201;SDS011;37799;52.390;6.136;2023-06-26T04:18:58;3.90;;;1.02;;
37201;SDS011;37799;52.390;6.136;2023-06-26T04:21:23;6.38;;;1.10;;
37201;SDS011;37799;52.390;6.136;2023-06-26T04:23:51;4.68;;;1.10;;
37201;SDS011;37799;52.390;6.136;2023-06-26T04:26:16;6.18;;;1.40;;
37201;SDS011;37799;52.390;6.136;2023-06-26T04:28:42;4.90;;;1.35;;
37201;SDS011;37799;52.390;6.136;2023-06-26T04:31:08;4.00;;;1.23;;
37201;SDS011;37799;52.390;6.136;2023-06-26T04:33:34;4.35;;;0.80;;
37201;SDS011;37799;52.390;6.136;2023-06-26T04:36:01;4.57;;;1.33;;
37201;SDS011;37799;52.390;6.136;2023-06-26T04:38:33;5.47;;;0.95;;
37201;SDS011;37799;52.390;6.136;2023-06-26T04:41:00;4.53;;;1.33;;
37201;SDS011;37799;52.390;6.136;2023-06-26T04:43:26;4.25;;;1.05;;
37201;SDS011;37799;52.390;6.136;2023-06-26T04:45:52;4.15;;;1.23;;
37201;SDS011;37799;52.390;6.136;2023-06-26T04:48:17;5.35;;;1.38;;
37201;SDS011;37799;52.390;6.136;2023-06-26T04:50:42;5.65;;;1.02;;
37201;SDS011;37799;52.390;6.136;2023-06-26T04:53:08;5.63;;;0.90;;
37201;SDS011;37799;52.390;6.136;2023-06-26T04:55:33;6.85;;;1.33;;
37201;SDS011;37799;52.390;6.136;2023-06-26T04:58:00;6.93;;;1.20;;
37201;SDS011;37799;52.390;6.136;2023-06-26T05:00:25;3.75;;;0.82;;
37201;SDS011;37799;52.390;6.136;2023-06-26T05:02:51;5.55;;;0.90;;
37201;SDS011;37799;52.390;6.136;2023-06-26T05:05:28;4.80;;;1.15;;
37201;SDS011;37799;52.390;6.136;2023-06-26T05:07:54;3.60;;;0.90;;
37201;SDS011;37799;52.390;6.136;2023-06-26T05:10:20;4.32;;;1.40;;
37201;SDS011;37799;52.390;6.136;2023-06-26T05:12:46;6.05;;;0.90;;
37201;SDS011;37799;52.390;6.136;2023-06-26T05:15:11;3.95;;;0.80;;
37201;SDS011;37799;52.390;6.136;2023-06-26T05:17:37;6.18;;;1.27;;
37201;SDS011;37799;52.390;6.136;2023-06-26T05:20:02;7.00;;;0.95;;
37201;SDS011;37799;52.390;6.136;2023-06-26T05:22:28;4.75;;;1.05;;
37201;SDS011;37799;52.390;6.136;2023-06-26T05:24:54;6.88;;;1.20;;
37201;SDS011;37799;52.390;6.136;2023-06-26T05:27:23;3.08;;;1.00;;
37201;SDS011;37799;52.390;6.136;2023-06-26T05:29:49;3.97;;;0.80;;
37201;SDS011;37799;52.390;6.136;2023-06-26T05:32:15;4.45;;;1.05;;
37201;SDS011;37799;52.390;6.136;2023-06-26T05:34:46;3.78;;;0.80;;
37201;SDS011;37799;52.390;6.136;2023-06-26T05:37:14;3.22;;;0.65;;
37201;SDS011;37799;52.390;6.136;2023-06-26T05:39:45;3.95;;;0.95;;
37201;SDS011;37799;52.390;6.136;2023-06-26T05:42:11;5.28;;;1.15;;
37201;SDS011;37799;52.390;6.136;2023-06-26T05:44:37;4.28;;;0.90;;
37201;SDS011;37799;52.390;6.136;2023-06-26T05:47:02;4.20;;;0.98;;
37201;SDS011;37799;52.390;6.136;2023-06-26T05:49:27;4.03;;;0.85;;
37201;SDS011;37799;52.390;6.136;2023-06-26T05:51:56;3.33;;;0.70;;
37201;SDS011;37799;52.390;6.136;2023-06-26T05:54:22;8.45;;;1.20;;
37201;SDS011;37799;52.390;6.136;2023-06-26T05:56:49;2.60;;;0.50;;
37201;SDS011;37799;52.390;6.136;2023-06-26T05:59:19;3.13;;;0.38;;
37201;SDS011;37799;52.390;6.136;2023-06-26T06:01:45;2.78;;;0.63;;
37201;SDS011;37799;52.390;6.136;2023-06-26T06:04:10;3.20;;;0.70;;
37201;SDS011;37799;52.390;6.136;2023-06-26T06:06:36;2.20;;;0.35;;
37201;SDS011;37799;52.390;6.136;2023-06-26T06:09:01;2.53;;;0.35;;
37201;SDS011;37799;52.390;6.136;2023-06-26T06:11:26;1.97;;;0.33;;
37201;SDS011;37799;52.390;6.136;2023-06-26T06:13:52;2.63;;;0.50;;
37201;SDS011;37799;52.390;6.136;2023-06-26T06:16:17;3.38;;;0.47;;
37201;SDS011;37799;52.390;6.136;2023-06-26T06:18:43;4.20;;;0.70;;
37201;SDS011;37799;52.390;6.136;2023-06-26T06:21:08;2.85;;;0.45;;
37201;SDS011;37799;52.390;6.136;2023-06-26T06:23:33;1.70;;;0.50;;
37201;SDS011;37799;52.390;6.136;2023-06-26T06:25:59;1.90;;;0.50;;
37201;SDS011;37799;52.390;6.136;2023-06-26T06:28:24;1.13;;;0.32;;
37201;SDS011;37799;52.390;6.136;2023-06-26T06:30:50;1.83;;;0.15;;
37201;SDS011;37799;52.390;6.136;2023-06-26T06:33:15;4.13;;;0.43;;
37201;SDS011;37799;52.390;6.136;2023-06-26T06:35:40;0.65;;;0.20;;
37201;SDS011;37799;52.390;6.136;2023-06-26T06:38:06;1.85;;;0.40;;
37201;SDS011;37799;52.390;6.136;2023-06-26T06:40:31;1.55;;;0.20;;
37201;SDS011;37799;52.390;6.136;2023-06-26T06:42:56;1.33;;;0.20;;
37201;SDS011;37799;52.390;6.136;2023-06-26T06:45:22;0.40;;;0.13;;
37201;SDS011;37799;52.390;6.136;2023-06-26T06:47:47;1.90;;;0.40;;
37201;SDS011;37799;52.390;6.136;2023-06-26T06:50:12;1.90;;;0.20;;
37201;SDS011;37799;52.390;6.136;2023-06-26T06:52:40;0.85;;;0.20;;
37201;SDS011;37799;52.390;6.136;2023-06-26T06:55:07;1.67;;;0.30;;
37201;SDS011;37799;52.390;6.136;2023-06-26T06:57:34;1.33;;;0.30;;
37201;SDS011;37799;52.390;6.136;2023-06-26T07:00:06;1.30;;;0.20;;
37201;SDS011;37799;52.390;6.136;2023-06-26T07:02:45;1.13;;;0.10;;
37201;SDS011;37799;52.390;6.136;2023-06-26T07:05:11;0.75;;;0.20;;
37201;SDS011;37799;52.390;6.136;2023-06-26T07:07:37;2.83;;;0.20;;
37201;SDS011;37799;52.390;6.136;2023-06-26T07:10:04;0.82;;;0.17;;
37201;SDS011;37799;52.390;6.136;2023-06-26T07:12:32;4.60;;;0.35;;
37201;SDS011;37799;52.390;6.136;2023-06-26T07:14:58;3.88;;;0.30;;
37201;SDS011;37799;52.390;6.136;2023-06-26T07:17:25;0.63;;;0.20;;
37201;SDS011;37799;52.390;6.136;2023-06-26T07:19:50;1.65;;;0.30;;
37201;SDS011;37799;52.390;6.136;2023-06-26T07:22:16;1.08;;;0.20;;
37201;SDS011;37799;52.390;6.136;2023-06-26T07:24:41;1.73;;;0.30;;
37201;SDS011;37799;52.390;6.136;2023-06-26T07:27:07;3.03;;;0.25;;
37201;SDS011;37799;52.390;6.136;2023-06-26T07:29:32;1.00;;;0.20;;
37201;SDS011;37799;52.390;6.136;2023-06-26T07:31:58;1.63;;;0.30;;
37201;SDS011;37799;52.390;6.136;2023-06-26T07:34:23;1.23;;;0.17;;
37201;SDS011;37799;52.390;6.136;2023-06-26T07:36:49;1.67;;;0.20;;
37201;SDS011;37799;52.390;6.136;2023-06-26T07:39:14;1.58;;;0.28;;
37201;SDS011;37799;52.390;6.136;2023-06-26T07:41:39;3.05;;;0.55;;
37201;SDS011;37799;52.390;6.136;2023-06-26T07:44:05;1.63;;;0.25;;
37201;SDS011;37799;52.390;6.136;2023-06-26T07:46:30;1.60;;;0.38;;
37201;SDS011;37799;52.390;6.136;2023-06-26T07:48:55;3.03;;;0.40;;
37201;SDS011;37799;52.390;6.136;2023-06-26T07:51:21;1.55;;;0.20;;
37201;SDS011;37799;52.390;6.136;2023-06-26T07:53:49;1.27;;;0.20;;
37201;SDS011;37799;52.390;6.136;2023-06-26T07:56:14;2.28;;;0.40;;
37201;SDS011;37799;52.390;6.136;2023-06-26T07:58:39;1.30;;;0.30;;
37201;SDS011;37799;52.390;6.136;2023-06-26T08:01:05;2.92;;;0.30;;
37201;SDS011;37799;52.390;6.136;2023-06-26T08:03:30;2.60;;;0.40;;
37201;SDS011;37799;52.390;6.136;2023-06-26T08:05:56;1.58;;;0.20;;
37201;SDS011;37799;52.390;6.136;2023-06-26T08:08:22;1.88;;;0.32;;
37201;SDS011;37799;52.390;6.136;2023-06-26T08:10:47;1.23;;;0.30;;
37201;SDS011;37799;52.390;6.136;2023-06-26T08:13:13;2.40;;;0.20;;
37201;SDS011;37799;52.390;6.136;2023-06-26T08:15:38;1.42;;;0.20;;
37201;SDS011;37799;52.390;6.136;2023-06-26T08:18:04;1.13;;;0.20;;
37201;SDS011;37799;52.390;6.136;2023-06-26T08:20:29;2.63;;;0.30;;
37201;SDS011;37799;52.390;6.136;2023-06-26T08:22:55;1.17;;;0.20;;
37201;SDS011;37799;52.390;6.136;2023-06-26T08:25:20;1.73;;;0.40;;
37201;SDS011;37799;52.390;6.136;2023-06-26T08:27:45;1.98;;;0.40;;
37201;SDS011;37799;52.390;6.136;2023-06-26T08:30:11;1.60;;;0.30;;
37201;SDS011;37799;52.390;6.136;2023-06-26T08:32:38;1.65;;;0.47;;
37201;SDS011;37799;52.390;6.136;2023-06-26T08:35:04;2.28;;;0.40;;
37201;SDS011;37799;52.390;6.136;2023-06-26T08:37:31;2.22;;;0.43;;
37201;SDS011;37799;52.390;6.136;2023-06-26T08:39:57;1.90;;;0.40;;
37201;SDS011;37799;52.390;6.136;2023-06-26T08:42:26;2.10;;;0.43;;
37201;SDS011;37799;52.390;6.136;2023-06-26T08:44:59;3.35;;;0.45;;
37201;SDS011;37799;52.390;6.136;2023-06-26T08:47:28;2.97;;;0.50;;
37201;SDS011;37799;52.390;6.136;2023-06-26T08:50:00;4.05;;;0.90;;
37201;SDS011;37799;52.390;6.136;2023-06-26T08:52:28;1.48;;;0.30;;
37201;SDS011;37799;52.390;6.136;2023-06-26T08:55:22;2.28;;;0.30;;
37201;SDS011;37799;52.390;6.136;2023-06-26T08:57:52;2.80;;;0.50;;
37201;SDS011;37799;52.390;6.136;2023-06-26T09:00:19;2.63;;;0.40;;
37201;SDS011;37799;52.390;6.136;2023-06-26T09:02:52;2.05;;;0.40;;
37201;SDS011;37799;52.390;6.136;2023-06-26T09:05:36;2.67;;;0.88;;
37201;SDS011;37799;52.390;6.136;2023-06-26T09:08:37;2.85;;;0.50;;
37201;SDS011;37799;52.390;6.136;2023-06-26T09:11:06;2.75;;;0.57;;
37201;SDS011;37799;52.390;6.136;2023-06-26T09:13:37;2.75;;;0.70;;
37201;SDS011;37799;52.390;6.136;2023-06-26T09:16:05;1.63;;;0.40;;
37201;SDS011;37799;52.390;6.136;2023-06-26T09:18:35;1.40;;;0.30;;
37201;SDS011;37799;52.390;6.136;2023-06-26T09:21:10;1.60;;;0.40;;
37201;SDS011;37799;52.390;6.136;2023-06-26T09:23:36;2.80;;;0.47;;
37201;SDS011;37799;52.390;6.136;2023-06-26T09:28:33;1.83;;;0.40;;
37201;SDS011;37799;52.390;6.136;2023-06-26T09:31:04;2.25;;;0.40;;
37201;SDS011;37799;52.390;6.136;2023-06-26T09:33:36;1.98;;;0.50;;
37201;SDS011;37799;52.390;6.136;2023-06-26T09:36:20;2.40;;;0.50;;
37201;SDS011;37799;52.390;6.136;2023-06-26T09:39:06;1.35;;;0.30;;
37201;SDS011;37799;52.390;6.136;2023-06-26T09:41:52;1.65;;;0.40;;
37201;SDS011;37799;52.390;6.136;2023-06-26T09:45:01;1.85;;;0.43;;
37201;SDS011;37799;52.390;6.136;2023-06-26T09:48:17;1.85;;;0.50;;
37201;SDS011;37799;52.390;6.136;2023-06-26T09:50:47;3.38;;;0.68;;
37201;SDS011;37799;52.390;6.136;2023-06-26T09:53:43;3.60;;;0.50;;
37201;SDS011;37799;52.390;6.136;2023-06-26T09:56:17;1.52;;;0.40;;
37201;SDS011;37799;52.390;6.136;2023-06-26T09:58:51;2.10;;;0.45;;
37201;SDS011;37799;52.390;6.136;2023-06-26T10:01:20;1.13;;;0.27;;
37201;SDS011;37799;52.390;6.136;2023-06-26T10:03:49;2.28;;;0.32;;
37201;SDS011;37799;52.390;6.136;2023-06-26T10:06:22;3.42;;;0.40;;
37201;SDS011;37799;52.390;6.136;2023-06-26T10:08:52;1.48;;;0.38;;
37201;SDS011;37799;52.390;6.136;2023-06-26T10:11:19;3.90;;;0.60;;
37201;SDS011;37799;52.390;6.136;2023-06-26T10:13:48;1.08;;;0.30;;
37201;SDS011;37799;52.390;6.136;2023-06-26T10:16:22;0.95;;;0.20;;
37201;SDS011;37799;52.390;6.136;2023-06-26T10:18:59;3.50;;;0.30;;
37201;SDS011;37799;52.390;6.136;2023-06-26T10:21:44;1.17;;;0.30;;
37201;SDS011;37799;52.390;6.136;2023-06-26T10:24:11;1.52;;;0.22;;
37201;SDS011;37799;52.390;6.136;2023-06-26T10:26:52;2.50;;;0.40;;
37201;SDS011;37799;52.390;6.136;2023-06-26T10:29:24;2.97;;;0.35;;
37201;SDS011;37799;52.390;6.136;2023-06-26T10:31:52;1.20;;;0.30;;
37201;SDS011;37799;52.390;6.136;2023-06-26T10:34:26;1.33;;;0.30;;
37201;SDS011;37799;52.390;6.136;2023-06-26T10:37:15;1.90;;;0.38;;
37201;SDS011;37799;52.390;6.136;2023-06-26T10:39:51;0.63;;;0.20;;
37201;SDS011;37799;52.390;6.136;2023-06-26T10:42:28;1.08;;;0.20;;
37201;SDS011;37799;52.390;6.136;2023-06-26T10:48:23;1.17;;;0.10;;
37201;SDS011;37799;52.390;6.136;2023-06-26T10:50:56;1.80;;;0.25;;
37201;SDS011;37799;52.390;6.136;2023-06-26T10:53:24;1.08;;;0.20;;
37201;SDS011;37799;52.390;6.136;2023-06-26T10:56:04;2.58;;;0.50;;
37201;SDS011;37799;52.390;6.136;2023-06-26T11:03:41;5.40;;;1.95;;
37201;SDS011;37799;52.390;6.136;2023-06-26T11:06:13;1.05;;;0.20;;
37201;SDS011;37799;52.390;6.136;2023-06-26T11:08:49;1.45;;;0.30;;
37201;SDS011;37799;52.390;6.136;2023-06-26T11:11:16;0.57;;;0.20;;
37201;SDS011;37799;52.390;6.136;2023-06-26T11:13:42;0.68;;;0.20;;
37201;SDS011;37799;52.390;6.136;2023-06-26T11:16:10;0.82;;;0.10;;
37201;SDS011;37799;52.390;6.136;2023-06-26T11:18:36;0.65;;;0.00;;
37201;SDS011;37799;52.390;6.136;2023-06-26T11:21:06;1.70;;;0.32;;
37201;SDS011;37799;52.390;6.136;2023-06-26T11:23:36;0.93;;;0.10;;
37201;SDS011;37799;52.390;6.136;2023-06-26T11:26:12;0.70;;;0.10;;
37201;SDS011;37799;52.390;6.136;2023-06-26T11:28:52;0.68;;;0.10;;
37201;SDS011;37799;52.390;6.136;2023-06-26T11:31:29;1.30;;;0.15;;
37201;SDS011;37799;52.390;6.136;2023-06-26T11:33:56;1.70;;;0.20;;
37201;SDS011;37799;52.390;6.136;2023-06-26T11:36:23;2.25;;;0.20;;
37201;SDS011;37799;52.390;6.136;2023-06-26T11:38:56;1.42;;;0.20;;
37201;SDS011;37799;52.390;6.136;2023-06-26T11:41:23;0.75;;;0.20;;
37201;SDS011;37799;52.390;6.136;2023-06-26T11:43:50;0.60;;;0.10;;
37201;SDS011;37799;52.390;6.136;2023-06-26T11:46:16;1.42;;;0.20;;
37201;SDS011;37799;52.390;6.136;2023-06-26T11:48:43;0.32;;;0.10;;
37201;SDS011;37799;52.390;6.136;2023-06-26T11:51:08;0.88;;;0.10;;
37201;SDS011;37799;52.390;6.136;2023-06-26T11:53:45;0.75;;;0.10;;
37201;SDS011;37799;52.390;6.136;2023-06-26T11:56:16;0.47;;;0.05;;
37201;SDS011;37799;52.390;6.136;2023-06-26T11:59:02;0.95;;;0.20;;
37201;SDS011;37799;52.390;6.136;2023-06-26T12:01:44;1.13;;;0.10;;
37201;SDS011;37799;52.390;6.136;2023-06-26T12:04:10;1.08;;;0.20;;
37201;SDS011;37799;52.390;6.136;2023-06-26T12:06:41;1.05;;;0.10;;
37201;SDS011;37799;52.390;6.136;2023-06-26T12:09:08;1.20;;;0.17;;
37201;SDS011;37799;52.390;6.136;2023-06-26T12:11:36;1.08;;;0.17;;
37201;SDS011;37799;52.390;6.136;2023-06-26T12:14:06;0.60;;;0.10;;
37201;SDS011;37799;52.390;6.136;2023-06-26T12:16:33;1.05;;;0.20;;
37201;SDS011;37799;52.390;6.136;2023-06-26T12:19:05;1.50;;;0.38;;
37201;SDS011;37799;52.390;6.136;2023-06-26T12:24:03;0.30;;;0.10;;
37201;SDS011;37799;52.390;6.136;2023-06-26T12:26:29;0.50;;;0.15;;
37201;SDS011;37799;52.390;6.136;2023-06-26T12:29:29;0.43;;;0.10;;
37201;SDS011;37799;52.390;6.136;2023-06-26T12:31:53;0.40;;;0.10;;
37201;SDS011;37799;52.390;6.136;2023-06-26T12:34:27;1.20;;;0.10;;
37201;SDS011;37799;52.390;6.136;2023-06-26T12:37:10;0.95;;;0.10;;
37201;SDS011;37799;52.390;6.136;2023-06-26T12:39:52;0.88;;;0.10;;
37201;SDS011;37799;52.390;6.136;2023-06-26T12:42:20;3.03;;;0.73;;
37201;SDS011;37799;52.390;6.136;2023-06-26T12:44:49;0.52;;;0.10;;
37201;SDS011;37799;52.390;6.136;2023-06-26T12:47:16;1.95;;;0.10;;
37201;SDS011;37799;52.390;6.136;2023-06-26T12:49:43;0.40;;;0.10;;
37201;SDS011;37799;52.390;6.136;2023-06-26T12:52:11;1.50;;;0.13;;
37201;SDS011;37799;52.390;6.136;2023-06-26T12:54:38;2.35;;;0.20;;
37201;SDS011;37799;52.390;6.136;2023-06-26T12:57:07;1.35;;;0.20;;
37201;SDS011;37799;52.390;6.136;2023-06-26T12:59:35;0.93;;;0.20;;
37201;SDS011;37799;52.390;6.136;2023-06-26T13:02:01;1.02;;;0.05;;
37201;SDS011;37799;52.390;6.136;2023-06-26T13:04:28;1.17;;;0.10;;
37201;SDS011;37799;52.390;6.136;2023-06-26T13:06:54;0.22;;;0.00;;
37201;SDS011;37799;52.390;6.136;2023-06-26T13:09:21;1.63;;;0.15;;
37201;SDS011;37799;52.390;6.136;2023-06-26T13:11:47;0.45;;;0.10;;
37201;SDS011;37799;52.390;6.136;2023-06-26T13:14:12;0.75;;;0.10;;
37201;SDS011;37799;52.390;6.136;2023-06-26T13:16:38;0.95;;;0.10;;
37201;SDS011;37799;52.390;6.136;2023-06-26T13:19:04;2.08;;;0.15;;
37201;SDS011;37799;52.390;6.136;2023-06-26T13:21:30;0.80;;;0.08;;
37201;SDS011;37799;52.390;6.136;2023-06-26T13:23:55;1.13;;;0.13;;
37201;SDS011;37799;52.390;6.136;2023-06-26T13:26:21;1.00;;;0.10;;
37201;SDS011;37799;52.390;6.136;2023-06-26T13:28:48;0.13;;;0.00;;
37201;SDS011;37799;52.390;6.136;2023-06-26T13:31:14;2.20;;;0.20;;
37201;SDS011;37799;52.390;6.136;2023-06-26T13:33:39;1.38;;;0.35;;
37201;SDS011;37799;52.390;6.136;2023-06-26T13:36:05;0.43;;;0.08;;
37201;SDS011;37799;52.390;6.136;2023-06-26T13:38:32;1.65;;;0.30;;
37201;SDS011;37799;52.390;6.136;2023-06-26T13:40:58;0.75;;;0.00;;
37201;SDS011;37799;52.390;6.136;2023-06-26T13:43:25;0.30;;;0.00;;
37201;SDS011;37799;52.390;6.136;2023-06-26T13:45:52;0.55;;;0.08;;
37201;SDS011;37799;52.390;6.136;2023-06-26T13:48:18;1.75;;;0.10;;
37201;SDS011;37799;52.390;6.136;2023-06-26T13:50:43;0.77;;;0.20;;
37201;SDS011;37799;52.390;6.136;2023-06-26T13:53:09;0.68;;;0.10;;
37201;SDS011;37799;52.390;6.136;2023-06-26T13:55:34;0.50;;;0.10;;
37201;SDS011;37799;52.390;6.136;2023-06-26T13:58:00;1.17;;;0.05;;
37201;SDS011;37799;52.390;6.136;2023-06-26T14:00:30;1.97;;;0.40;;
37201;SDS011;37799;52.390;6.136;2023-06-26T14:02:59;2.38;;;0.10;;
37201;SDS011;37799;52.390;6.136;2023-06-26T14:05:25;0.95;;;0.10;;
37201;SDS011;37799;52.390;6.136;2023-06-26T14:07:51;0.32;;;0.10;;
37201;SDS011;37799;52.390;6.136;2023-06-26T14:10:16;0.97;;;0.03;;
37201;SDS011;37799;52.390;6.136;2023-06-26T14:12:41;0.38;;;0.05;;
37201;SDS011;37799;52.390;6.136;2023-06-26T14:15:07;0.77;;;0.10;;
37201;SDS011;37799;52.390;6.136;2023-06-26T14:17:34;2.25;;;0.10;;
37201;SDS011;37799;52.390;6.136;2023-06-26T14:19:59;0.75;;;0.20;;
37201;SDS011;37799;52.390;6.136;2023-06-26T14:22:25;0.17;;;0.00;;
37201;SDS011;37799;52.390;6.136;2023-06-26T14:24:50;1.38;;;0.10;;
37201;SDS011;37799;52.390;6.136;2023-06-26T14:27:16;0.70;;;0.15;;
37201;SDS011;37799;52.390;6.136;2023-06-26T14:29:41;1.80;;;0.43;;
37201;SDS011;37799;52.390;6.136;2023-06-26T14:32:07;2.00;;;0.20;;
37201;SDS011;37799;52.390;6.136;2023-06-26T14:34:32;0.30;;;0.00;;
37201;SDS011;37799;52.390;6.136;2023-06-26T14:36:58;0.50;;;0.00;;
37201;SDS011;37799;52.390;6.136;2023-06-26T14:39:24;0.82;;;0.10;;
37201;SDS011;37799;52.390;6.136;2023-06-26T14:41:49;0.80;;;0.10;;
37201;SDS011;37799;52.390;6.136;2023-06-26T14:44:15;1.65;;;0.20;;
37201;SDS011;37799;52.390;6.136;2023-06-26T14:46:40;0.32;;;0.00;;
37201;SDS011;37799;52.390;6.136;2023-06-26T14:49:06;1.25;;;0.10;;
37201;SDS011;37799;52.390;6.136;2023-06-26T14:51:32;0.50;;;0.10;;
37201;SDS011;37799;52.390;6.136;2023-06-26T14:53:59;1.60;;;0.10;;
37201;SDS011;37799;52.390;6.136;2023-06-26T14:56:25;0.65;;;0.10;;
37201;SDS011;37799;52.390;6.136;2023-06-26T14:58:50;0.85;;;0.10;;
37201;SDS011;37799;52.390;6.136;2023-06-26T15:01:17;1.00;;;0.30;;
37201;SDS011;37799;52.390;6.136;2023-06-26T15:03:44;1.70;;;0.00;;
37201;SDS011;37799;52.390;6.136;2023-06-26T15:06:11;1.17;;;0.20;;
37201;SDS011;37799;52.390;6.136;2023-06-26T15:08:36;0.85;;;0.10;;
37201;SDS011;37799;52.390;6.136;2023-06-26T15:11:01;0.75;;;0.10;;
37201;SDS011;37799;52.390;6.136;2023-06-26T15:13:27;1.08;;;0.03;;